Terminal Aerodrome Forecast
Issued by NWS

Home | Current Version | Previous Version | Text Only | Print | Product List | Glossary On
Versions: 1 2 3 4 5 6 7 8 9 10 11 12 13 14 15 16 17 18 19 20 21
000
FTUS43 KLSX 191734
TAFSUS
TAF
KSUS 191734Z 1918/2018 VRB04KT P6SM SKC
     FM200700 16005KT 3SM BR BKN025
     FM201400 15006KT P6SM BKN050=

USA.gov is the U.S. government's official web portal to all federal, state and local government web resources and services.